sensor_id;sensor_type;location;lat;lon;timestamp;pressure;altitude;pressure_sealevel;temperature;humidity
71504;BME280;59323;50.874;7.028;2023-02-28T00:01:16;102604.31;;;-0.39;75.23
71504;BME280;59323;50.874;7.028;2023-02-28T00:03:42;102604.22;;;-0.44;75.61
71504;BME280;59323;50.874;7.028;2023-02-28T00:06:08;102599.63;;;-0.49;75.69
71504;BME280;59323;50.874;7.028;2023-02-28T00:08:35;102598.00;;;-0.50;76.29
71504;BME280;59323;50.874;7.028;2023-02-28T00:11:07;102601.97;;;-0.52;75.64
71504;BME280;59323;50.874;7.028;2023-02-28T00:13:35;102599.78;;;-0.55;75.96
71504;BME280;59323;50.874;7.028;2023-02-28T00:16:06;102598.16;;;-0.56;75.71
71504;BME280;59323;50.874;7.028;2023-02-28T00:18:32;102596.78;;;-0.59;76.36
71504;BME280;59323;50.874;7.028;2023-02-28T00:20:58;102601.56;;;-0.61;76.23
71504;BME280;59323;50.874;7.028;2023-02-28T00:23:25;102595.91;;;-0.65;76.01
71504;BME280;59323;50.874;7.028;2023-02-28T00:25:51;102599.03;;;-0.68;76.43
71504;BME280;59323;50.874;7.028;2023-02-28T00:28:17;102607.84;;;-0.67;77.26
71504;BME280;59323;50.874;7.028;2023-02-28T00:30:43;102603.00;;;-0.70;76.94
71504;BME280;59323;50.874;7.028;2023-02-28T00:33:09;102600.56;;;-0.72;76.84
71504;BME280;59323;50.874;7.028;2023-02-28T00:35:34;102606.16;;;-0.73;77.11
71504;BME280;59323;50.874;7.028;2023-02-28T00:37:59;102599.91;;;-0.79;76.86
71504;BME280;59323;50.874;7.028;2023-02-28T00:40:27;102603.16;;;-0.77;76.49
71504;BME280;59323;50.874;7.028;2023-02-28T00:42:52;102596.69;;;-0.81;76.88
71504;BME280;59323;50.874;7.028;2023-02-28T00:45:18;102603.31;;;-0.83;77.41
71504;BME280;59323;50.874;7.028;2023-02-28T00:47:44;102599.09;;;-0.79;76.33
71504;BME280;59323;50.874;7.028;2023-02-28T00:50:11;102604.53;;;-0.74;76.59
71504;BME280;59323;50.874;7.028;2023-02-28T00:52:37;102589.91;;;-0.72;75.96
71504;BME280;59323;50.874;7.028;2023-02-28T00:55:02;102592.66;;;-0.67;75.39
71504;BME280;59323;50.874;7.028;2023-02-28T00:57:27;102594.75;;;-0.69;76.15
71504;BME280;59323;50.874;7.028;2023-02-28T00:59:53;102601.38;;;-0.71;75.94
71504;BME280;59323;50.874;7.028;2023-02-28T01:02:21;102591.66;;;-0.77;75.58
71504;BME280;59323;50.874;7.028;2023-02-28T01:04:46;102605.44;;;-0.69;75.51
71504;BME280;59323;50.874;7.028;2023-02-28T01:07:12;102588.69;;;-0.81;75.94
71504;BME280;59323;50.874;7.028;2023-02-28T01:09:39;102607.34;;;-0.81;76.30
71504;BME280;59323;50.874;7.028;2023-02-28T01:12:06;102616.25;;;-0.75;75.82
71504;BME280;59323;50.874;7.028;2023-02-28T01:14:32;102608.16;;;-0.80;75.96
71504;BME280;59323;50.874;7.028;2023-02-28T01:16:57;102600.56;;;-0.88;75.95
71504;BME280;59323;50.874;7.028;2023-02-28T01:19:22;102607.50;;;-0.87;76.30
71504;BME280;59323;50.874;7.028;2023-02-28T01:21:48;102610.09;;;-0.92;76.35
71504;BME280;59323;50.874;7.028;2023-02-28T01:24:13;102611.97;;;-0.93;76.31
71504;BME280;59323;50.874;7.028;2023-02-28T01:26:39;102611.63;;;-0.97;76.20
71504;BME280;59323;50.874;7.028;2023-02-28T01:29:04;102603.63;;;-0.97;76.57
71504;BME280;59323;50.874;7.028;2023-02-28T01:31:29;102598.78;;;-1.00;76.01
71504;BME280;59323;50.874;7.028;2023-02-28T01:33:55;102603.88;;;-0.98;76.49
71504;BME280;59323;50.874;7.028;2023-02-28T01:36:23;102608.41;;;-0.99;76.83
71504;BME280;59323;50.874;7.028;2023-02-28T01:38:49;102609.19;;;-0.98;76.62
71504;BME280;59323;50.874;7.028;2023-02-28T01:41:24;102600.72;;;-0.95;76.60
71504;BME280;59323;50.874;7.028;2023-02-28T01:46:15;102595.38;;;-0.95;76.20
71504;BME280;59323;50.874;7.028;2023-02-28T01:48:45;102594.25;;;-0.99;76.42
71504;BME280;59323;50.874;7.028;2023-02-28T01:51:15;102591.56;;;-0.99;76.20
71504;BME280;59323;50.874;7.028;2023-02-28T01:53:46;102593.28;;;-0.93;75.93
71504;BME280;59323;50.874;7.028;2023-02-28T01:56:16;102596.91;;;-0.99;76.27
71504;BME280;59323;50.874;7.028;2023-02-28T01:58:50;102588.81;;;-1.04;76.70
71504;BME280;59323;50.874;7.028;2023-02-28T02:01:16;102588.09;;;-1.00;76.17
71504;BME280;59323;50.874;7.028;2023-02-28T02:03:48;102591.09;;;-0.96;75.55
71504;BME280;59323;50.874;7.028;2023-02-28T02:06:21;102595.06;;;-0.99;76.13
71504;BME280;59323;50.874;7.028;2023-02-28T02:08:48;102579.78;;;-1.03;76.22
71504;BME280;59323;50.874;7.028;2023-02-28T02:11:18;102579.84;;;-0.98;76.26
71504;BME280;59323;50.874;7.028;2023-02-28T02:13:54;102578.25;;;-0.99;76.03
71504;BME280;59323;50.874;7.028;2023-02-28T02:24:49;102574.59;;;-1.10;76.91
71504;BME280;59323;50.874;7.028;2023-02-28T02:37:42;102572.88;;;-1.16;76.53
71504;BME280;59323;50.874;7.028;2023-02-28T02:40:19;102573.59;;;-1.20;77.19
71504;BME280;59323;50.874;7.028;2023-02-28T02:42:51;102571.41;;;-1.23;77.09
71504;BME280;59323;50.874;7.028;2023-02-28T02:45:43;102572.69;;;-1.26;77.41
71504;BME280;59323;50.874;7.028;2023-02-28T02:48:09;102565.38;;;-1.31;77.63
71504;BME280;59323;50.874;7.028;2023-02-28T02:50:42;102569.34;;;-1.33;77.18
71504;BME280;59323;50.874;7.028;2023-02-28T02:53:09;102576.53;;;-1.34;77.09
71504;BME280;59323;50.874;7.028;2023-02-28T02:55:40;102574.13;;;-1.35;77.38
71504;BME280;59323;50.874;7.028;2023-02-28T02:58:10;102579.44;;;-1.35;77.66
71504;BME280;59323;50.874;7.028;2023-02-28T03:00:42;102569.50;;;-1.40;77.57
71504;BME280;59323;50.874;7.028;2023-02-28T03:03:12;102575.88;;;-1.41;77.72
71504;BME280;59323;50.874;7.028;2023-02-28T03:05:48;102563.59;;;-1.42;77.71
71504;BME280;59323;50.874;7.028;2023-02-28T03:08:16;102566.50;;;-1.43;77.35
71504;BME280;59323;50.874;7.028;2023-02-28T03:10:43;102569.16;;;-1.43;77.60
71504;BME280;59323;50.874;7.028;2023-02-28T03:21:40;102556.78;;;-1.49;77.03
71504;BME280;59323;50.874;7.028;2023-02-28T03:24:11;102556.22;;;-1.51;77.06
71504;BME280;59323;50.874;7.028;2023-02-28T03:26:42;102549.75;;;-1.55;76.96
71504;BME280;59323;50.874;7.028;2023-02-28T03:29:17;102548.94;;;-1.56;77.31
71504;BME280;59323;50.874;7.028;2023-02-28T03:31:49;102556.13;;;-1.56;77.58
71504;BME280;59323;50.874;7.028;2023-02-28T03:34:36;102558.22;;;-1.58;77.48
71504;BME280;59323;50.874;7.028;2023-02-28T03:37:13;102559.50;;;-1.61;77.48
71504;BME280;59323;50.874;7.028;2023-02-28T03:39:47;102548.50;;;-1.65;77.78
71504;BME280;59323;50.874;7.028;2023-02-28T03:42:17;102558.34;;;-1.65;77.69
71504;BME280;59323;50.874;7.028;2023-02-28T03:44:48;102557.22;;;-1.69;77.57
71504;BME280;59323;50.874;7.028;2023-02-28T03:50:16;102556.88;;;-1.73;78.15
71504;BME280;59323;50.874;7.028;2023-02-28T03:52:49;102555.16;;;-1.79;78.25
71504;BME280;59323;50.874;7.028;2023-02-28T03:55:16;102561.78;;;-1.81;78.33
71504;BME280;59323;50.874;7.028;2023-02-28T03:57:59;102562.81;;;-1.82;78.17
71504;BME280;59323;50.874;7.028;2023-02-28T04:00:39;102551.00;;;-1.86;78.22
71504;BME280;59323;50.874;7.028;2023-02-28T04:03:06;102561.91;;;-1.88;78.38
71504;BME280;59323;50.874;7.028;2023-02-28T04:05:32;102559.13;;;-1.93;78.58
71504;BME280;59323;50.874;7.028;2023-02-28T04:08:05;102561.81;;;-1.93;78.33
71504;BME280;59323;50.874;7.028;2023-02-28T04:10:31;102562.25;;;-1.96;78.28
71504;BME280;59323;50.874;7.028;2023-02-28T04:12:57;102569.66;;;-1.98;78.52
71504;BME280;59323;50.874;7.028;2023-02-28T04:15:22;102573.59;;;-2.01;78.69
71504;BME280;59323;50.874;7.028;2023-02-28T04:17:49;102570.13;;;-2.01;78.02
71504;BME280;59323;50.874;7.028;2023-02-28T04:20:17;102568.50;;;-2.02;77.94
71504;BME280;59323;50.874;7.028;2023-02-28T04:22:43;102572.44;;;-2.05;78.12
71504;BME280;59323;50.874;7.028;2023-02-28T04:25:08;102571.88;;;-2.07;78.23
71504;BME280;59323;50.874;7.028;2023-02-28T04:27:33;102579.28;;;-2.09;78.25
71504;BME280;59323;50.874;7.028;2023-02-28T04:29:59;102569.69;;;-2.10;78.65
71504;BME280;59323;50.874;7.028;2023-02-28T04:32:25;102573.38;;;-2.11;78.91
71504;BME280;59323;50.874;7.028;2023-02-28T04:34:50;102564.25;;;-2.15;78.57
71504;BME280;59323;50.874;7.028;2023-02-28T04:37:15;102574.09;;;-2.15;78.63
71504;BME280;59323;50.874;7.028;2023-02-28T04:39:41;102578.25;;;-2.19;77.63
71504;BME280;59323;50.874;7.028;2023-02-28T04:42:07;102582.88;;;-2.15;75.58
71504;BME280;59323;50.874;7.028;2023-02-28T04:44:32;102577.19;;;-2.07;74.33
71504;BME280;59323;50.874;7.028;2023-02-28T04:46:58;102582.16;;;-1.99;73.81
71504;BME280;59323;50.874;7.028;2023-02-28T04:49:23;102569.66;;;-1.98;73.47
71504;BME280;59323;50.874;7.028;2023-02-28T04:51:49;102571.50;;;-1.87;73.17
71504;BME280;59323;50.874;7.028;2023-02-28T04:54:15;102580.56;;;-1.88;73.12
71504;BME280;59323;50.874;7.028;2023-02-28T04:56:41;102578.22;;;-1.84;72.82
71504;BME280;59323;50.874;7.028;2023-02-28T04:59:06;102578.56;;;-1.81;72.85
71504;BME280;59323;50.874;7.028;2023-02-28T05:01:33;102585.75;;;-1.81;72.77
71504;BME280;59323;50.874;7.028;2023-02-28T05:04:01;102590.13;;;-1.75;72.40
71504;BME280;59323;50.874;7.028;2023-02-28T05:06:29;102591.84;;;-1.69;71.51
71504;BME280;59323;50.874;7.028;2023-02-28T05:08:55;102593.69;;;-1.58;71.21
71504;BME280;59323;50.874;7.028;2023-02-28T05:11:23;102597.63;;;-1.61;71.73
71504;BME280;59323;50.874;7.028;2023-02-28T05:13:50;102596.56;;;-1.60;71.66
71504;BME280;59323;50.874;7.028;2023-02-28T05:16:16;102597.06;;;-1.63;71.95
71504;BME280;59323;50.874;7.028;2023-02-28T05:18:42;102596.72;;;-1.66;71.93
71504;BME280;59323;50.874;7.028;2023-02-28T05:23:48;102597.25;;;-1.52;71.60
71504;BME280;59323;50.874;7.028;2023-02-28T05:26:14;102587.06;;;-1.55;71.54
71504;BME280;59323;50.874;7.028;2023-02-28T05:28:39;102592.72;;;-1.52;70.95
71504;BME280;59323;50.874;7.028;2023-02-28T05:31:04;102586.91;;;-1.49;70.72
71504;BME280;59323;50.874;7.028;2023-02-28T05:33:30;102582.16;;;-1.47;70.90
71504;BME280;59323;50.874;7.028;2023-02-28T05:35:55;102592.00;;;-1.47;70.42
71504;BME280;59323;50.874;7.028;2023-02-28T05:38:20;102592.34;;;-1.44;70.73
71504;BME280;59323;50.874;7.028;2023-02-28T05:40:46;102592.81;;;-1.47;70.95
71504;BME280;59323;50.874;7.028;2023-02-28T05:43:11;102597.44;;;-1.42;70.13
71504;BME280;59323;50.874;7.028;2023-02-28T05:45:37;102602.09;;;-1.49;71.01
71504;BME280;59323;50.874;7.028;2023-02-28T05:48:02;102593.63;;;-1.46;70.38
71504;BME280;59323;50.874;7.028;2023-02-28T05:50:27;102608.81;;;-1.47;71.01
71504;BME280;59323;50.874;7.028;2023-02-28T05:52:53;102606.16;;;-1.47;70.50
71504;BME280;59323;50.874;7.028;2023-02-28T05:55:18;102587.28;;;-1.57;70.73
71504;BME280;59323;50.874;7.028;2023-02-28T05:57:44;102605.72;;;-1.55;71.40
71504;BME280;59323;50.874;7.028;2023-02-28T06:00:10;102601.66;;;-1.58;71.48
71504;BME280;59323;50.874;7.028;2023-02-28T06:02:37;102609.38;;;-1.45;70.29
71504;BME280;59323;50.874;7.028;2023-02-28T06:05:03;102595.25;;;-1.45;70.21
71504;BME280;59323;50.874;7.028;2023-02-28T06:07:28;102594.44;;;-1.46;70.35
71504;BME280;59323;50.874;7.028;2023-02-28T06:09:54;102594.44;;;-1.46;69.99
71504;BME280;59323;50.874;7.028;2023-02-28T06:12:19;102592.34;;;-1.44;69.96
71504;BME280;59323;50.874;7.028;2023-02-28T06:14:44;102598.44;;;-1.32;69.59
71504;BME280;59323;50.874;7.028;2023-02-28T06:17:10;102597.38;;;-1.31;69.45
71504;BME280;59323;50.874;7.028;2023-02-28T06:19:37;102591.41;;;-1.38;70.11
71504;BME280;59323;50.874;7.028;2023-02-28T06:22:04;102598.50;;;-1.43;70.47
71504;BME280;59323;50.874;7.028;2023-02-28T06:24:29;102601.19;;;-1.55;71.22
71504;BME280;59323;50.874;7.028;2023-02-28T06:26:56;102607.19;;;-1.48;70.33
71504;BME280;59323;50.874;7.028;2023-02-28T06:29:24;102610.91;;;-1.49;70.36
71504;BME280;59323;50.874;7.028;2023-02-28T06:31:49;102617.28;;;-1.50;70.33
71504;BME280;59323;50.874;7.028;2023-02-28T06:34:15;102615.09;;;-1.53;70.37
71504;BME280;59323;50.874;7.028;2023-02-28T06:36:41;102614.97;;;-1.46;70.25
71504;BME280;59323;50.874;7.028;2023-02-28T06:39:07;102615.38;;;-1.38;69.19
71504;BME280;59323;50.874;7.028;2023-02-28T06:41:33;102626.28;;;-1.39;69.78
71504;BME280;59323;50.874;7.028;2023-02-28T06:44:13;102627.09;;;-1.39;69.64
71504;BME280;59323;50.874;7.028;2023-02-28T06:46:43;102630.69;;;-1.33;68.98
71504;BME280;59323;50.874;7.028;2023-02-28T06:49:09;102628.59;;;-1.31;69.21
71504;BME280;59323;50.874;7.028;2023-02-28T06:51:36;102638.44;;;-1.32;69.09
71504;BME280;59323;50.874;7.028;2023-02-28T06:54:02;102634.28;;;-1.27;68.87
71504;BME280;59323;50.874;7.028;2023-02-28T06:56:27;102647.22;;;-1.19;68.66
71504;BME280;59323;50.874;7.028;2023-02-28T06:58:53;102645.88;;;-1.05;67.51
71504;BME280;59323;50.874;7.028;2023-02-28T07:01:19;102647.50;;;-1.04;68.10
71504;BME280;59323;50.874;7.028;2023-02-28T07:03:45;102653.41;;;-1.02;67.62
71504;BME280;59323;50.874;7.028;2023-02-28T07:06:11;102647.84;;;-1.01;67.06
71504;BME280;59323;50.874;7.028;2023-02-28T07:08:37;102654.06;;;-0.95;67.00
71504;BME280;59323;50.874;7.028;2023-02-28T07:11:03;102649.22;;;-0.98;67.21
71504;BME280;59323;50.874;7.028;2023-02-28T07:13:32;102651.50;;;-0.90;66.26
71504;BME280;59323;50.874;7.028;2023-02-28T07:16:00;102654.03;;;-0.83;66.02
71504;BME280;59323;50.874;7.028;2023-02-28T07:18:26;102652.91;;;-0.71;64.66
71504;BME280;59323;50.874;7.028;2023-02-28T07:20:52;102648.34;;;-0.58;64.06
71504;BME280;59323;50.874;7.028;2023-02-28T07:23:17;102654.88;;;-0.49;64.79
71504;BME280;59323;50.874;7.028;2023-02-28T07:25:43;102660.38;;;-0.39;64.64
71504;BME280;59323;50.874;7.028;2023-02-28T07:28:09;102657.94;;;-0.24;62.84
71504;BME280;59323;50.874;7.028;2023-02-28T07:30:34;102658.41;;;-0.10;63.11
71504;BME280;59323;50.874;7.028;2023-02-28T07:33:00;102663.44;;;0.03;63.75
71504;BME280;59323;50.874;7.028;2023-02-28T07:35:25;102649.41;;;0.13;60.24
71504;BME280;59323;50.874;7.028;2023-02-28T07:37:50;102660.88;;;0.30;61.36
71504;BME280;59323;50.874;7.028;2023-02-28T07:40:16;102662.94;;;0.45;60.26
71504;BME280;59323;50.874;7.028;2023-02-28T07:42:43;102656.69;;;0.61;59.71
71504;BME280;59323;50.874;7.028;2023-02-28T07:45:09;102653.91;;;0.73;58.16
71504;BME280;59323;50.874;7.028;2023-02-28T07:47:39;102659.75;;;0.91;57.47
71504;BME280;59323;50.874;7.028;2023-02-28T07:50:07;102649.19;;;1.07;55.46
71504;BME280;59323;50.874;7.028;2023-02-28T07:52:32;102655.06;;;1.31;55.87
71504;BME280;59323;50.874;7.028;2023-02-28T08:08:49;102658.41;;;2.22;50.94
71504;BME280;59323;50.874;7.028;2023-02-28T08:11:16;102661.13;;;2.32;51.08
71504;BME280;59323;50.874;7.028;2023-02-28T08:13:42;102657.44;;;2.48;50.10
71504;BME280;59323;50.874;7.028;2023-02-28T08:16:09;102658.53;;;2.52;49.01
71504;BME280;59323;50.874;7.028;2023-02-28T08:18:35;102656.47;;;2.70;49.85
71504;BME280;59323;50.874;7.028;2023-02-28T08:21:08;102666.19;;;2.91;48.40
71504;BME280;59323;50.874;7.028;2023-02-28T08:23:36;102652.72;;;2.76;47.59
71504;BME280;59323;50.874;7.028;2023-02-28T08:26:04;102656.28;;;2.97;48.94
71504;BME280;59323;50.874;7.028;2023-02-28T08:28:30;102665.97;;;3.13;47.03
71504;BME280;59323;50.874;7.028;2023-02-28T08:30:58;102652.78;;;3.06;45.64
71504;BME280;59323;50.874;7.028;2023-02-28T08:33:24;102661.41;;;3.08;47.02
71504;BME280;59323;50.874;7.028;2023-02-28T08:35:54;102664.06;;;3.03;46.40
71504;BME280;59323;50.874;7.028;2023-02-28T08:38:20;102668.41;;;3.19;47.73
71504;BME280;59323;50.874;7.028;2023-02-28T08:40:45;102672.75;;;3.46;45.43
71504;BME280;59323;50.874;7.028;2023-02-28T08:43:11;102665.75;;;3.60;46.54
71504;BME280;59323;50.874;7.028;2023-02-28T08:45:36;102668.69;;;3.79;45.35
71504;BME280;59323;50.874;7.028;2023-02-28T08:48:02;102678.63;;;3.89;44.29
71504;BME280;59323;50.874;7.028;2023-02-28T08:50:27;102674.59;;;4.01;44.57
71504;BME280;59323;50.874;7.028;2023-02-28T08:52:52;102673.50;;;4.07;44.05
71504;BME280;59323;50.874;7.028;2023-02-28T08:55:18;102661.69;;;3.98;41.06
71504;BME280;59323;50.874;7.028;2023-02-28T08:57:43;102678.06;;;4.12;42.54
71504;BME280;59323;50.874;7.028;2023-02-28T09:00:09;102671.88;;;4.22;42.59
71504;BME280;59323;50.874;7.028;2023-02-28T09:02:40;102670.56;;;4.04;41.69
71504;BME280;59323;50.874;7.028;2023-02-28T09:05:08;102671.88;;;4.17;42.32
71504;BME280;59323;50.874;7.028;2023-02-28T09:07:33;102667.72;;;4.50;43.44
71504;BME280;59323;50.874;7.028;2023-02-28T09:10:04;102666.75;;;4.25;40.09
71504;BME280;59323;50.874;7.028;2023-02-28T09:12:32;102658.06;;;4.38;42.42
71504;BME280;59323;50.874;7.028;2023-02-28T09:14:58;102659.09;;;4.63;41.98
71504;BME280;59323;50.874;7.028;2023-02-28T09:17:24;102663.59;;;4.72;40.50
71504;BME280;59323;50.874;7.028;2023-02-28T09:19:49;102666.75;;;4.90;41.70
71504;BME280;59323;50.874;7.028;2023-02-28T09:22:14;102667.91;;;4.73;40.49
71504;BME280;59323;50.874;7.028;2023-02-28T09:24:41;102663.59;;;4.72;39.83
71504;BME280;59323;50.874;7.028;2023-02-28T09:27:15;102653.72;;;4.58;40.23
71504;BME280;59323;50.874;7.028;2023-02-28T09:29:58;102650.25;;;4.47;40.00
71504;BME280;59323;50.874;7.028;2023-02-28T09:32:33;102650.53;;;4.40;39.56
71504;BME280;59323;50.874;7.028;2023-02-28T09:34:58;102662.59;;;4.58;39.37
71504;BME280;59323;50.874;7.028;2023-02-28T09:37:24;102649.13;;;4.58;39.85
71504;BME280;59323;50.874;7.028;2023-02-28T09:39:51;102653.72;;;4.58;39.43
71504;BME280;59323;50.874;7.028;2023-02-28T09:42:21;102656.09;;;4.69;39.87
71504;BME280;59323;50.874;7.028;2023-02-28T09:44:53;102651.31;;;4.46;39.03
71504;BME280;59323;50.874;7.028;2023-02-28T09:50:41;102658.56;;;4.56;39.49
71504;BME280;59323;50.874;7.028;2023-02-28T09:53:27;102649.41;;;4.62;39.25
71504;BME280;59323;50.874;7.028;2023-02-28T09:56:20;102652.06;;;4.67;39.58
71504;BME280;59323;50.874;7.028;2023-02-28T10:04:27;102653.59;;;4.83;39.26
71504;BME280;59323;50.874;7.028;2023-02-28T10:06:58;102647.03;;;4.99;41.02
71504;BME280;59323;50.874;7.028;2023-02-28T10:09:34;102641.25;;;5.21;40.51
71504;BME280;59323;50.874;7.028;2023-02-28T10:12:05;102639.78;;;5.34;40.54
71504;BME280;59323;50.874;7.028;2023-02-28T10:14:33;102637.75;;;5.21;39.75
71504;BME280;59323;50.874;7.028;2023-02-28T10:17:04;102650.13;;;5.17;38.64
71504;BME280;59323;50.874;7.028;2023-02-28T10:19:42;102645.03;;;5.20;38.98
71504;BME280;59323;50.874;7.028;2023-02-28T10:22:33;102639.56;;;5.30;39.41
71504;BME280;59323;50.874;7.028;2023-02-28T10:25:04;102639.63;;;5.15;39.76
71504;BME280;59323;50.874;7.028;2023-02-28T10:27:31;102628.97;;;5.00;39.00
71504;BME280;59323;50.874;7.028;2023-02-28T10:30:04;102640.75;;;5.09;41.41
71504;BME280;59323;50.874;7.028;2023-02-28T10:32:49;102626.41;;;5.19;40.57
71504;BME280;59323;50.874;7.028;2023-02-28T10:35:19;102635.16;;;5.39;39.51
71504;BME280;59323;50.874;7.028;2023-02-28T10:37:48;102622.34;;;5.26;39.73
71504;BME280;59323;50.874;7.028;2023-02-28T10:45:38;102636.38;;;5.23;38.96
71504;BME280;59323;50.874;7.028;2023-02-28T10:50:44;102605.56;;;5.34;39.57
71504;BME280;59323;50.874;7.028;2023-02-28T10:58:23;102611.09;;;5.48;39.42
71504;BME280;59323;50.874;7.028;2023-02-28T11:00:51;102605.69;;;5.48;39.01
71504;BME280;59323;50.874;7.028;2023-02-28T11:03:32;102606.47;;;5.54;39.32
71504;BME280;59323;50.874;7.028;2023-02-28T11:06:03;102605.66;;;5.53;40.38
71504;BME280;59323;50.874;7.028;2023-02-28T11:08:32;102599.31;;;5.68;39.96
71504;BME280;59323;50.874;7.028;2023-02-28T11:11:03;102605.56;;;5.63;38.63
71504;BME280;59323;50.874;7.028;2023-02-28T11:13:36;102609.28;;;5.38;37.62
71504;BME280;59323;50.874;7.028;2023-02-28T11:16:06;102603.72;;;5.30;38.40
71504;BME280;59323;50.874;7.028;2023-02-28T11:18:42;102613.41;;;5.31;38.51
71504;BME280;59323;50.874;7.028;2023-02-28T11:21:21;102585.41;;;5.27;40.16
71504;BME280;59323;50.874;7.028;2023-02-28T11:23:48;102587.06;;;5.23;40.05
71504;BME280;59323;50.874;7.028;2023-02-28T11:26:34;102601.94;;;5.10;38.34
71504;BME280;59323;50.874;7.028;2023-02-28T11:29:19;102603.13;;;4.99;38.00
71504;BME280;59323;50.874;7.028;2023-02-28T11:32:13;102595.56;;;5.01;38.11
71504;BME280;59323;50.874;7.028;2023-02-28T11:34:44;102600.94;;;5.01;38.90
71504;BME280;59323;50.874;7.028;2023-02-28T11:37:15;102590.44;;;4.99;39.35
71504;BME280;59323;50.874;7.028;2023-02-28T11:39:41;102585.88;;;5.00;39.45
71504;BME280;59323;50.874;7.028;2023-02-28T11:45:01;102588.44;;;5.15;38.32
71504;BME280;59323;50.874;7.028;2023-02-28T11:55:30;102593.81;;;5.49;37.91
71504;BME280;59323;50.874;7.028;2023-02-28T12:03:45;102590.66;;;5.42;38.78
71504;BME280;59323;50.874;7.028;2023-02-28T12:09:09;102587.91;;;5.47;40.41
71504;BME280;59323;50.874;7.028;2023-02-28T12:11:51;102580.13;;;5.46;40.02
71504;BME280;59323;50.874;7.028;2023-02-28T12:25:34;102573.53;;;5.86;39.21
71504;BME280;59323;50.874;7.028;2023-02-28T12:28:09;102572.41;;;5.92;39.42
71504;BME280;59323;50.874;7.028;2023-02-28T12:30:44;102560.56;;;5.83;37.25
71504;BME280;59323;50.874;7.028;2023-02-28T12:33:16;102563.34;;;5.78;38.23
71504;BME280;59323;50.874;7.028;2023-02-28T12:35:57;102575.72;;;5.79;38.31
71504;BME280;59323;50.874;7.028;2023-02-28T12:39:33;102554.16;;;5.79;37.94
71504;BME280;59323;50.874;7.028;2023-02-28T12:41:46;102554.19;;;6.02;39.25
71504;BME280;59323;50.874;7.028;2023-02-28T12:44:17;102560.41;;;6.03;37.39
71504;BME280;59323;50.874;7.028;2023-02-28T12:46:51;102542.78;;;5.82;37.43
71504;BME280;59323;50.874;7.028;2023-02-28T12:49:28;102543.28;;;5.89;38.66
71504;BME280;59323;50.874;7.028;2023-02-28T12:52:00;102540.31;;;5.90;39.08
71504;BME280;59323;50.874;7.028;2023-02-28T12:57:18;102537.50;;;6.00;38.01
71504;BME280;59323;50.874;7.028;2023-02-28T12:59:55;102532.97;;;5.96;37.88
71504;BME280;59323;50.874;7.028;2023-02-28T13:08:37;102515.28;;;5.80;38.78
71504;BME280;59323;50.874;7.028;2023-02-28T13:11:07;102520.06;;;5.93;38.32
71504;BME280;59323;50.874;7.028;2023-02-28T13:13:37;102522.69;;;5.98;38.77
71504;BME280;59323;50.874;7.028;2023-02-28T13:16:08;102518.66;;;5.95;39.42
71504;BME280;59323;50.874;7.028;2023-02-28T13:18:39;102514.94;;;5.91;38.81
71504;BME280;59323;50.874;7.028;2023-02-28T13:21:24;102521.53;;;6.04;39.38
71504;BME280;59323;50.874;7.028;2023-02-28T13:39:53;102518.09;;;5.98;39.25
71504;BME280;59323;50.874;7.028;2023-02-28T13:47:40;102508.19;;;5.89;39.02
71504;BME280;59323;50.874;7.028;2023-02-28T14:06:27;102505.75;;;5.92;39.75
71504;BME280;59323;50.874;7.028;2023-02-28T14:11:45;102504.03;;;6.01;39.07
71504;BME280;59323;50.874;7.028;2023-02-28T14:17:00;102483.88;;;5.94;38.33
71504;BME280;59323;50.874;7.028;2023-02-28T14:19:29;102480.69;;;5.92;38.01
71504;BME280;59323;50.874;7.028;2023-02-28T14:22:02;102479.91;;;5.86;38.85
71504;BME280;59323;50.874;7.028;2023-02-28T14:27:52;102481.25;;;5.84;38.92
71504;BME280;59323;50.874;7.028;2023-02-28T14:36:27;102476.22;;;5.77;39.36
71504;BME280;59323;50.874;7.028;2023-02-28T14:38:58;102477.59;;;5.74;39.65
71504;BME280;59323;50.874;7.028;2023-02-28T14:41:32;102473.75;;;5.81;39.09
71504;BME280;59323;50.874;7.028;2023-02-28T14:44:01;102472.44;;;5.78;39.41
71504;BME280;59323;50.874;7.028;2023-02-28T14:46:37;102468.41;;;5.76;39.97
71504;BME280;59323;50.874;7.028;2023-02-28T14:49:09;102468.41;;;5.76;39.59
71504;BME280;59323;50.874;7.028;2023-02-28T14:51:37;102468.63;;;5.79;40.71
71504;BME280;59323;50.874;7.028;2023-02-28T14:54:03;102468.56;;;5.84;40.93
71504;BME280;59323;50.874;7.028;2023-02-28T14:56:37;102463.47;;;5.83;40.09
71504;BME280;59323;50.874;7.028;2023-02-28T14:59:03;102466.97;;;5.83;40.65
71504;BME280;59323;50.874;7.028;2023-02-28T15:01:29;102469.94;;;5.82;38.67
71504;BME280;59323;50.874;7.028;2023-02-28T15:04:05;102468.06;;;5.82;39.79
71504;BME280;59323;50.874;7.028;2023-02-28T15:06:32;102468.34;;;5.81;40.35
71504;BME280;59323;50.874;7.028;2023-02-28T15:09:10;102466.41;;;5.86;39.66
71504;BME280;59323;50.874;7.028;2023-02-28T15:11:38;102465.63;;;5.86;39.12
71504;BME280;59323;50.874;7.028;2023-02-28T15:14:04;102459.97;;;5.82;39.38
71504;BME280;59323;50.874;7.028;2023-02-28T15:16:39;102452.16;;;5.81;39.39
71504;BME280;59323;50.874;7.028;2023-02-28T15:19:29;102455.78;;;5.71;40.11
71504;BME280;59323;50.874;7.028;2023-02-28T15:22:00;102444.19;;;5.70;40.92
71504;BME280;59323;50.874;7.028;2023-02-28T15:27:00;102446.44;;;5.63;40.51
71504;BME280;59323;50.874;7.028;2023-02-28T15:29:29;102450.16;;;5.67;41.16
71504;BME280;59323;50.874;7.028;2023-02-28T15:32:01;102452.13;;;5.62;41.21
71504;BME280;59323;50.874;7.028;2023-02-28T15:39:51;102455.00;;;5.70;39.97
71504;BME280;59323;50.874;7.028;2023-02-28T15:42:20;102455.00;;;5.70;39.43
71504;BME280;59323;50.874;7.028;2023-02-28T15:44:46;102448.00;;;5.69;39.92
71504;BME280;59323;50.874;7.028;2023-02-28T15:47:26;102452.00;;;5.72;39.15
71504;BME280;59323;50.874;7.028;2023-02-28T15:49:58;102443.75;;;5.63;39.60
71504;BME280;59323;50.874;7.028;2023-02-28T15:55:18;102451.31;;;5.61;39.18
71504;BME280;59323;50.874;7.028;2023-02-28T15:57:44;102443.38;;;5.51;40.58
71504;BME280;59323;50.874;7.028;2023-02-28T16:00:15;102453.34;;;5.51;40.72